sensor_id;sensor_type;location;lat;lon;timestamp;P1;durP1;ratioP1;P2;durP2;ratioP2
70153;SDS011;57519;51.494;-2.626;2023-02-28T00:00:48;8.70;;;5.33;;
70153;SDS011;57519;51.494;-2.626;2023-02-28T00:03:13;7.00;;;5.37;;
70153;SDS011;57519;51.494;-2.626;2023-02-28T00:05:39;6.60;;;5.23;;
70153;SDS011;57519;51.494;-2.626;2023-02-28T00:08:04;6.33;;;5.70;;
70153;SDS011;57519;51.494;-2.626;2023-02-28T00:10:30;5.72;;;5.00;;
70153;SDS011;57519;51.494;-2.626;2023-02-28T00:13:01;7.30;;;5.60;;
70153;SDS011;57519;51.494;-2.626;2023-02-28T00:15:28;9.32;;;6.18;;
70153;SDS011;57519;51.494;-2.626;2023-02-28T00:17:54;6.53;;;5.80;;
70153;SDS011;57519;51.494;-2.626;2023-02-28T00:20:19;7.03;;;5.33;;
70153;SDS011;57519;51.494;-2.626;2023-02-28T00:22:46;10.48;;;5.93;;
70153;SDS011;57519;51.494;-2.626;2023-02-28T00:25:15;9.73;;;5.68;;
70153;SDS011;57519;51.494;-2.626;2023-02-28T00:27:42;7.55;;;5.95;;
70153;SDS011;57519;51.494;-2.626;2023-02-28T00:30:08;10.50;;;5.83;;
70153;SDS011;57519;51.494;-2.626;2023-02-28T00:32:36;7.25;;;5.22;;
70153;SDS011;57519;51.494;-2.626;2023-02-28T00:35:02;8.57;;;6.00;;
70153;SDS011;57519;51.494;-2.626;2023-02-28T00:37:28;13.13;;;7.13;;
70153;SDS011;57519;51.494;-2.626;2023-02-28T00:39:53;10.83;;;6.33;;
70153;SDS011;57519;51.494;-2.626;2023-02-28T00:42:19;11.32;;;5.90;;
70153;SDS011;57519;51.494;-2.626;2023-02-28T00:44:44;6.93;;;5.27;;
70153;SDS011;57519;51.494;-2.626;2023-02-28T00:47:10;9.90;;;5.70;;
70153;SDS011;57519;51.494;-2.626;2023-02-28T00:49:35;8.53;;;5.97;;
70153;SDS011;57519;51.494;-2.626;2023-02-28T00:52:01;10.30;;;6.25;;
70153;SDS011;57519;51.494;-2.626;2023-02-28T00:54:26;7.27;;;6.00;;
70153;SDS011;57519;51.494;-2.626;2023-02-28T00:56:51;7.63;;;6.30;;
70153;SDS011;57519;51.494;-2.626;2023-02-28T00:59:17;8.77;;;6.93;;
70153;SDS011;57519;51.494;-2.626;2023-02-28T01:01:43;9.93;;;6.78;;
70153;SDS011;57519;51.494;-2.626;2023-02-28T01:04:10;11.52;;;6.57;;
70153;SDS011;57519;51.494;-2.626;2023-02-28T01:06:36;10.40;;;6.43;;
70153;SDS011;57519;51.494;-2.626;2023-02-28T01:09:02;7.70;;;6.63;;
70153;SDS011;57519;51.494;-2.626;2023-02-28T01:11:29;8.02;;;6.25;;
70153;SDS011;57519;51.494;-2.626;2023-02-28T01:13:54;12.93;;;6.90;;
70153;SDS011;57519;51.494;-2.626;2023-02-28T01:16:20;8.40;;;6.40;;
70153;SDS011;57519;51.494;-2.626;2023-02-28T01:18:45;8.88;;;5.97;;
70153;SDS011;57519;51.494;-2.626;2023-02-28T01:21:12;9.20;;;6.27;;
70153;SDS011;57519;51.494;-2.626;2023-02-28T01:23:40;9.50;;;6.60;;
70153;SDS011;57519;51.494;-2.626;2023-02-28T01:26:06;13.43;;;6.63;;
70153;SDS011;57519;51.494;-2.626;2023-02-28T01:28:33;10.10;;;6.15;;
70153;SDS011;57519;51.494;-2.626;2023-02-28T01:30:59;9.25;;;4.95;;
70153;SDS011;57519;51.494;-2.626;2023-02-28T01:33:24;7.37;;;5.50;;
70153;SDS011;57519;51.494;-2.626;2023-02-28T01:35:57;12.50;;;6.20;;
70153;SDS011;57519;51.494;-2.626;2023-02-28T01:38:23;12.67;;;5.87;;
70153;SDS011;57519;51.494;-2.626;2023-02-28T01:40:49;7.55;;;5.45;;
70153;SDS011;57519;51.494;-2.626;2023-02-28T01:45:57;9.43;;;6.35;;
70153;SDS011;57519;51.494;-2.626;2023-02-28T01:48:31;14.35;;;6.75;;
70153;SDS011;57519;51.494;-2.626;2023-02-28T01:50:59;7.40;;;5.50;;
70153;SDS011;57519;51.494;-2.626;2023-02-28T01:53:33;7.30;;;5.93;;
70153;SDS011;57519;51.494;-2.626;2023-02-28T01:56:03;7.03;;;5.67;;
70153;SDS011;57519;51.494;-2.626;2023-02-28T01:58:31;6.25;;;5.32;;
70153;SDS011;57519;51.494;-2.626;2023-02-28T02:00:57;7.57;;;6.38;;
70153;SDS011;57519;51.494;-2.626;2023-02-28T02:03:23;7.40;;;5.50;;
70153;SDS011;57519;51.494;-2.626;2023-02-28T02:05:48;7.75;;;6.35;;
70153;SDS011;57519;51.494;-2.626;2023-02-28T02:08:18;8.30;;;6.77;;
70153;SDS011;57519;51.494;-2.626;2023-02-28T02:10:54;10.60;;;6.38;;
70153;SDS011;57519;51.494;-2.626;2023-02-28T02:18:52;9.57;;;5.75;;
70153;SDS011;57519;51.494;-2.626;2023-02-28T02:24:00;7.68;;;6.03;;
70153;SDS011;57519;51.494;-2.626;2023-02-28T02:37:02;9.52;;;6.53;;
70153;SDS011;57519;51.494;-2.626;2023-02-28T02:39:57;7.67;;;6.37;;
70153;SDS011;57519;51.494;-2.626;2023-02-28T02:42:39;8.90;;;6.38;;
70153;SDS011;57519;51.494;-2.626;2023-02-28T02:45:32;8.98;;;6.18;;
70153;SDS011;57519;51.494;-2.626;2023-02-28T02:48:11;8.65;;;6.20;;
70153;SDS011;57519;51.494;-2.626;2023-02-28T02:50:45;7.60;;;6.05;;
70153;SDS011;57519;51.494;-2.626;2023-02-28T02:53:14;7.27;;;5.97;;
70153;SDS011;57519;51.494;-2.626;2023-02-28T02:55:43;7.00;;;5.97;;
70153;SDS011;57519;51.494;-2.626;2023-02-28T02:58:13;7.88;;;5.75;;
70153;SDS011;57519;51.494;-2.626;2023-02-28T03:00:43;9.15;;;6.70;;
70153;SDS011;57519;51.494;-2.626;2023-02-28T03:03:13;9.40;;;6.63;;
70153;SDS011;57519;51.494;-2.626;2023-02-28T03:05:45;12.13;;;7.30;;
70153;SDS011;57519;51.494;-2.626;2023-02-28T03:08:13;11.35;;;6.60;;
70153;SDS011;57519;51.494;-2.626;2023-02-28T03:10:40;9.60;;;6.13;;
70153;SDS011;57519;51.494;-2.626;2023-02-28T03:15:50;11.32;;;6.50;;
70153;SDS011;57519;51.494;-2.626;2023-02-28T03:18:50;6.63;;;5.37;;
70153;SDS011;57519;51.494;-2.626;2023-02-28T03:27:23;8.50;;;6.95;;
70153;SDS011;57519;51.494;-2.626;2023-02-28T03:30:00;7.88;;;5.85;;
70153;SDS011;57519;51.494;-2.626;2023-02-28T03:33:17;8.57;;;6.33;;
70153;SDS011;57519;51.494;-2.626;2023-02-28T03:35:32;11.32;;;6.50;;
70153;SDS011;57519;51.494;-2.626;2023-02-28T03:38:06;7.80;;;6.28;;
70153;SDS011;57519;51.494;-2.626;2023-02-28T03:40:39;10.02;;;6.18;;
70153;SDS011;57519;51.494;-2.626;2023-02-28T03:43:10;10.98;;;6.45;;
70153;SDS011;57519;51.494;-2.626;2023-02-28T03:45:40;8.20;;;6.57;;
70153;SDS011;57519;51.494;-2.626;2023-02-28T03:50:39;8.63;;;6.75;;
70153;SDS011;57519;51.494;-2.626;2023-02-28T03:53:08;11.15;;;6.80;;
70153;SDS011;57519;51.494;-2.626;2023-02-28T03:55:39;8.93;;;6.55;;
70153;SDS011;57519;51.494;-2.626;2023-02-28T03:58:17;9.67;;;6.43;;
70153;SDS011;57519;51.494;-2.626;2023-02-28T04:00:57;9.55;;;7.32;;
70153;SDS011;57519;51.494;-2.626;2023-02-28T04:03:33;11.15;;;8.50;;
70153;SDS011;57519;51.494;-2.626;2023-02-28T04:06:02;10.25;;;7.45;;
70153;SDS011;57519;51.494;-2.626;2023-02-28T04:08:28;13.15;;;7.78;;
70153;SDS011;57519;51.494;-2.626;2023-02-28T04:10:56;11.23;;;7.17;;
70153;SDS011;57519;51.494;-2.626;2023-02-28T04:13:26;9.15;;;6.75;;
70153;SDS011;57519;51.494;-2.626;2023-02-28T04:15:51;12.83;;;8.37;;
70153;SDS011;57519;51.494;-2.626;2023-02-28T04:18:17;13.50;;;8.40;;
70153;SDS011;57519;51.494;-2.626;2023-02-28T04:20:42;13.53;;;7.90;;
70153;SDS011;57519;51.494;-2.626;2023-02-28T04:23:08;12.88;;;8.10;;
70153;SDS011;57519;51.494;-2.626;2023-02-28T04:25:33;13.43;;;8.40;;
70153;SDS011;57519;51.494;-2.626;2023-02-28T04:27:59;11.13;;;8.83;;
70153;SDS011;57519;51.494;-2.626;2023-02-28T04:30:24;10.93;;;7.73;;
70153;SDS011;57519;51.494;-2.626;2023-02-28T04:32:49;11.83;;;8.40;;
70153;SDS011;57519;51.494;-2.626;2023-02-28T04:35:15;12.02;;;8.60;;
70153;SDS011;57519;51.494;-2.626;2023-02-28T04:37:40;13.37;;;8.17;;
70153;SDS011;57519;51.494;-2.626;2023-02-28T04:40:06;9.80;;;7.10;;
70153;SDS011;57519;51.494;-2.626;2023-02-28T04:42:32;11.57;;;8.20;;
70153;SDS011;57519;51.494;-2.626;2023-02-28T04:45:01;11.55;;;7.50;;
70153;SDS011;57519;51.494;-2.626;2023-02-28T04:47:27;10.60;;;7.85;;
70153;SDS011;57519;51.494;-2.626;2023-02-28T04:49:53;11.20;;;8.47;;
70153;SDS011;57519;51.494;-2.626;2023-02-28T04:52:18;9.03;;;7.10;;
70153;SDS011;57519;51.494;-2.626;2023-02-28T04:54:44;10.20;;;7.68;;
70153;SDS011;57519;51.494;-2.626;2023-02-28T04:57:10;9.13;;;7.10;;
70153;SDS011;57519;51.494;-2.626;2023-02-28T04:59:35;9.97;;;7.53;;
70153;SDS011;57519;51.494;-2.626;2023-02-28T05:02:00;12.00;;;7.20;;
70153;SDS011;57519;51.494;-2.626;2023-02-28T05:04:31;8.83;;;6.63;;
70153;SDS011;57519;51.494;-2.626;2023-02-28T05:06:59;9.60;;;6.90;;
70153;SDS011;57519;51.494;-2.626;2023-02-28T05:09:24;10.52;;;7.32;;
70153;SDS011;57519;51.494;-2.626;2023-02-28T05:11:50;11.43;;;7.57;;
70153;SDS011;57519;51.494;-2.626;2023-02-28T05:14:15;8.47;;;7.03;;
70153;SDS011;57519;51.494;-2.626;2023-02-28T05:16:41;11.00;;;7.60;;
70153;SDS011;57519;51.494;-2.626;2023-02-28T05:19:06;11.23;;;8.03;;
70153;SDS011;57519;51.494;-2.626;2023-02-28T05:21:33;11.77;;;7.20;;
70153;SDS011;57519;51.494;-2.626;2023-02-28T05:24:06;13.27;;;8.70;;
70153;SDS011;57519;51.494;-2.626;2023-02-28T05:26:39;11.15;;;6.90;;
70153;SDS011;57519;51.494;-2.626;2023-02-28T05:29:06;11.93;;;7.57;;
70153;SDS011;57519;51.494;-2.626;2023-02-28T05:31:32;13.00;;;6.77;;
70153;SDS011;57519;51.494;-2.626;2023-02-28T05:33:58;11.77;;;8.13;;
70153;SDS011;57519;51.494;-2.626;2023-02-28T05:36:23;8.73;;;6.33;;
70153;SDS011;57519;51.494;-2.626;2023-02-28T05:38:49;11.17;;;7.57;;
70153;SDS011;57519;51.494;-2.626;2023-02-28T05:41:15;10.90;;;7.72;;
70153;SDS011;57519;51.494;-2.626;2023-02-28T05:43:42;14.95;;;9.32;;
70153;SDS011;57519;51.494;-2.626;2023-02-28T05:46:08;12.57;;;9.37;;
70153;SDS011;57519;51.494;-2.626;2023-02-28T05:48:35;13.38;;;8.90;;
70153;SDS011;57519;51.494;-2.626;2023-02-28T05:51:03;14.38;;;8.27;;
70153;SDS011;57519;51.494;-2.626;2023-02-28T05:53:29;11.93;;;8.38;;
70153;SDS011;57519;51.494;-2.626;2023-02-28T05:55:55;15.53;;;9.40;;
70153;SDS011;57519;51.494;-2.626;2023-02-28T05:58:21;16.05;;;8.73;;
70153;SDS011;57519;51.494;-2.626;2023-02-28T06:00:47;13.10;;;8.37;;
70153;SDS011;57519;51.494;-2.626;2023-02-28T06:03:12;13.60;;;9.10;;
70153;SDS011;57519;51.494;-2.626;2023-02-28T06:05:38;13.17;;;9.07;;
70153;SDS011;57519;51.494;-2.626;2023-02-28T06:08:03;28.57;;;8.90;;
70153;SDS011;57519;51.494;-2.626;2023-02-28T06:10:31;14.33;;;8.90;;
70153;SDS011;57519;51.494;-2.626;2023-02-28T06:12:59;12.75;;;8.82;;
70153;SDS011;57519;51.494;-2.626;2023-02-28T06:15:25;12.80;;;8.38;;
70153;SDS011;57519;51.494;-2.626;2023-02-28T06:17:51;14.37;;;8.73;;
70153;SDS011;57519;51.494;-2.626;2023-02-28T06:20:17;13.45;;;8.45;;
70153;SDS011;57519;51.494;-2.626;2023-02-28T06:22:42;16.23;;;8.33;;
70153;SDS011;57519;51.494;-2.626;2023-02-28T06:25:09;14.13;;;9.07;;
70153;SDS011;57519;51.494;-2.626;2023-02-28T06:27:35;16.35;;;9.13;;
70153;SDS011;57519;51.494;-2.626;2023-02-28T06:30:00;14.37;;;8.67;;
70153;SDS011;57519;51.494;-2.626;2023-02-28T06:32:26;13.52;;;8.77;;
70153;SDS011;57519;51.494;-2.626;2023-02-28T06:34:51;15.03;;;9.23;;
70153;SDS011;57519;51.494;-2.626;2023-02-28T06:37:18;16.25;;;10.02;;
70153;SDS011;57519;51.494;-2.626;2023-02-28T06:39:43;13.67;;;9.97;;
70153;SDS011;57519;51.494;-2.626;2023-02-28T06:42:09;13.63;;;9.15;;
70153;SDS011;57519;51.494;-2.626;2023-02-28T06:44:35;13.87;;;9.20;;
70153;SDS011;57519;51.494;-2.626;2023-02-28T06:47:01;21.23;;;10.33;;
70153;SDS011;57519;51.494;-2.626;2023-02-28T06:49:28;21.65;;;9.88;;
70153;SDS011;57519;51.494;-2.626;2023-02-28T06:51:58;18.40;;;9.30;;
70153;SDS011;57519;51.494;-2.626;2023-02-28T06:54:23;15.87;;;10.47;;
70153;SDS011;57519;51.494;-2.626;2023-02-28T06:56:49;17.42;;;10.20;;
70153;SDS011;57519;51.494;-2.626;2023-02-28T06:59:15;19.27;;;10.17;;
70153;SDS011;57519;51.494;-2.626;2023-02-28T07:01:41;18.02;;;11.35;;
70153;SDS011;57519;51.494;-2.626;2023-02-28T07:04:07;16.93;;;10.67;;
70153;SDS011;57519;51.494;-2.626;2023-02-28T07:06:32;20.92;;;11.18;;
70153;SDS011;57519;51.494;-2.626;2023-02-28T07:08:58;17.27;;;10.63;;
70153;SDS011;57519;51.494;-2.626;2023-02-28T07:11:24;14.63;;;9.57;;
70153;SDS011;57519;51.494;-2.626;2023-02-28T07:13:52;18.75;;;10.70;;
70153;SDS011;57519;51.494;-2.626;2023-02-28T07:16:19;15.88;;;10.52;;
70153;SDS011;57519;51.494;-2.626;2023-02-28T07:18:44;19.83;;;10.80;;
70153;SDS011;57519;51.494;-2.626;2023-02-28T07:21:10;19.42;;;11.35;;
70153;SDS011;57519;51.494;-2.626;2023-02-28T07:23:36;20.07;;;11.83;;
70153;SDS011;57519;51.494;-2.626;2023-02-28T07:26:03;24.83;;;11.10;;
70153;SDS011;57519;51.494;-2.626;2023-02-28T07:28:30;22.17;;;11.73;;
70153;SDS011;57519;51.494;-2.626;2023-02-28T07:30:55;20.80;;;11.17;;
70153;SDS011;57519;51.494;-2.626;2023-02-28T07:33:21;21.65;;;11.07;;
70153;SDS011;57519;51.494;-2.626;2023-02-28T07:35:46;20.90;;;11.43;;
70153;SDS011;57519;51.494;-2.626;2023-02-28T07:38:11;24.30;;;11.70;;
70153;SDS011;57519;51.494;-2.626;2023-02-28T07:40:38;22.80;;;10.57;;
70153;SDS011;57519;51.494;-2.626;2023-02-28T07:43:04;18.87;;;10.57;;
70153;SDS011;57519;51.494;-2.626;2023-02-28T07:45:30;22.92;;;12.05;;
70153;SDS011;57519;51.494;-2.626;2023-02-28T07:47:56;20.10;;;11.97;;
70153;SDS011;57519;51.494;-2.626;2023-02-28T07:50:22;21.30;;;11.25;;
70153;SDS011;57519;51.494;-2.626;2023-02-28T07:52:48;22.80;;;11.10;;
70153;SDS011;57519;51.494;-2.626;2023-02-28T07:55:13;21.07;;;11.00;;
70153;SDS011;57519;51.494;-2.626;2023-02-28T07:57:39;18.90;;;10.73;;
70153;SDS011;57519;51.494;-2.626;2023-02-28T08:00:06;22.90;;;10.73;;
70153;SDS011;57519;51.494;-2.626;2023-02-28T08:02:34;18.98;;;9.98;;
70153;SDS011;57519;51.494;-2.626;2023-02-28T08:05:00;17.40;;;9.50;;
70153;SDS011;57519;51.494;-2.626;2023-02-28T08:07:26;19.20;;;10.27;;
70153;SDS011;57519;51.494;-2.626;2023-02-28T08:09:51;22.90;;;10.27;;
70153;SDS011;57519;51.494;-2.626;2023-02-28T08:12:16;17.30;;;9.57;;
70153;SDS011;57519;51.494;-2.626;2023-02-28T08:14:42;21.73;;;9.90;;
70153;SDS011;57519;51.494;-2.626;2023-02-28T08:17:07;17.77;;;9.90;;
70153;SDS011;57519;51.494;-2.626;2023-02-28T08:19:33;20.23;;;10.30;;
70153;SDS011;57519;51.494;-2.626;2023-02-28T08:21:59;16.37;;;9.93;;
70153;SDS011;57519;51.494;-2.626;2023-02-28T08:24:24;18.30;;;9.87;;
70153;SDS011;57519;51.494;-2.626;2023-02-28T08:26:50;14.63;;;9.80;;
70153;SDS011;57519;51.494;-2.626;2023-02-28T08:29:15;16.40;;;9.77;;
70153;SDS011;57519;51.494;-2.626;2023-02-28T08:31:41;15.40;;;8.60;;
70153;SDS011;57519;51.494;-2.626;2023-02-28T08:34:07;17.42;;;9.20;;
70153;SDS011;57519;51.494;-2.626;2023-02-28T08:36:37;15.60;;;8.87;;
70153;SDS011;57519;51.494;-2.626;2023-02-28T08:39:03;16.52;;;9.50;;
70153;SDS011;57519;51.494;-2.626;2023-02-28T08:41:29;16.57;;;8.83;;
70153;SDS011;57519;51.494;-2.626;2023-02-28T08:43:54;18.27;;;8.75;;
70153;SDS011;57519;51.494;-2.626;2023-02-28T08:46:20;14.67;;;8.17;;
70153;SDS011;57519;51.494;-2.626;2023-02-28T08:48:45;16.80;;;10.38;;
70153;SDS011;57519;51.494;-2.626;2023-02-28T08:51:12;14.07;;;10.10;;
70153;SDS011;57519;51.494;-2.626;2023-02-28T08:53:41;15.80;;;9.05;;
70153;SDS011;57519;51.494;-2.626;2023-02-28T08:56:07;15.80;;;9.13;;
70153;SDS011;57519;51.494;-2.626;2023-02-28T08:58:34;18.45;;;9.32;;
70153;SDS011;57519;51.494;-2.626;2023-02-28T09:01:00;16.90;;;10.07;;
70153;SDS011;57519;51.494;-2.626;2023-02-28T09:03:33;17.63;;;10.70;;
70153;SDS011;57519;51.494;-2.626;2023-02-28T09:05:59;13.80;;;9.30;;
70153;SDS011;57519;51.494;-2.626;2023-02-28T09:08:28;17.42;;;9.40;;
70153;SDS011;57519;51.494;-2.626;2023-02-28T09:10:58;19.90;;;9.88;;
70153;SDS011;57519;51.494;-2.626;2023-02-28T09:13:24;19.60;;;9.87;;
70153;SDS011;57519;51.494;-2.626;2023-02-28T09:15:52;20.23;;;10.35;;
70153;SDS011;57519;51.494;-2.626;2023-02-28T09:18:18;20.65;;;10.68;;
70153;SDS011;57519;51.494;-2.626;2023-02-28T09:20:43;18.52;;;10.25;;
70153;SDS011;57519;51.494;-2.626;2023-02-28T09:23:10;18.83;;;10.50;;
70153;SDS011;57519;51.494;-2.626;2023-02-28T09:25:36;18.63;;;10.13;;
70153;SDS011;57519;51.494;-2.626;2023-02-28T09:28:03;16.17;;;10.10;;
70153;SDS011;57519;51.494;-2.626;2023-02-28T09:30:28;14.45;;;9.93;;
70153;SDS011;57519;51.494;-2.626;2023-02-28T09:32:55;18.67;;;9.37;;
70153;SDS011;57519;51.494;-2.626;2023-02-28T09:35:21;15.38;;;9.30;;
70153;SDS011;57519;51.494;-2.626;2023-02-28T09:37:48;16.97;;;10.70;;
70153;SDS011;57519;51.494;-2.626;2023-02-28T09:40:14;18.15;;;10.40;;
70153;SDS011;57519;51.494;-2.626;2023-02-28T09:42:43;18.65;;;9.05;;
70153;SDS011;57519;51.494;-2.626;2023-02-28T09:45:31;22.98;;;10.82;;
70153;SDS011;57519;51.494;-2.626;2023-02-28T09:48:09;15.68;;;9.00;;
70153;SDS011;57519;51.494;-2.626;2023-02-28T09:50:41;15.17;;;8.23;;
70153;SDS011;57519;51.494;-2.626;2023-02-28T09:55:59;22.58;;;10.32;;
70153;SDS011;57519;51.494;-2.626;2023-02-28T09:58:40;14.85;;;8.35;;
70153;SDS011;57519;51.494;-2.626;2023-02-28T10:01:18;18.08;;;9.85;;
70153;SDS011;57519;51.494;-2.626;2023-02-28T10:06:36;16.02;;;8.43;;
70153;SDS011;57519;51.494;-2.626;2023-02-28T10:11:50;16.35;;;8.25;;
70153;SDS011;57519;51.494;-2.626;2023-02-28T10:14:27;13.27;;;7.72;;
70153;SDS011;57519;51.494;-2.626;2023-02-28T10:17:04;17.53;;;8.63;;
70153;SDS011;57519;51.494;-2.626;2023-02-28T10:19:52;13.73;;;7.30;;
70153;SDS011;57519;51.494;-2.626;2023-02-28T10:25:39;11.90;;;7.35;;
70153;SDS011;57519;51.494;-2.626;2023-02-28T10:28:11;14.30;;;8.10;;
70153;SDS011;57519;51.494;-2.626;2023-02-28T10:30:39;14.35;;;7.78;;
70153;SDS011;57519;51.494;-2.626;2023-02-28T10:33:30;13.23;;;6.38;;
70153;SDS011;57519;51.494;-2.626;2023-02-28T10:35:56;12.38;;;7.10;;
70153;SDS011;57519;51.494;-2.626;2023-02-28T10:38:32;13.15;;;7.82;;
70153;SDS011;57519;51.494;-2.626;2023-02-28T10:41:03;14.40;;;8.27;;
70153;SDS011;57519;51.494;-2.626;2023-02-28T10:43:28;13.98;;;8.10;;
70153;SDS011;57519;51.494;-2.626;2023-02-28T10:48:30;13.95;;;7.57;;
70153;SDS011;57519;51.494;-2.626;2023-02-28T10:51:10;14.18;;;8.20;;
70153;SDS011;57519;51.494;-2.626;2023-02-28T10:53:58;12.27;;;7.22;;
70153;SDS011;57519;51.494;-2.626;2023-02-28T10:56:24;16.67;;;7.78;;
70153;SDS011;57519;51.494;-2.626;2023-02-28T11:01:23;12.85;;;8.02;;
70153;SDS011;57519;51.494;-2.626;2023-02-28T11:03:58;12.35;;;7.95;;
70153;SDS011;57519;51.494;-2.626;2023-02-28T11:06:33;14.90;;;8.13;;
70153;SDS011;57519;51.494;-2.626;2023-02-28T11:09:03;14.32;;;7.22;;
70153;SDS011;57519;51.494;-2.626;2023-02-28T11:11:43;17.80;;;7.10;;
70153;SDS011;57519;51.494;-2.626;2023-02-28T11:14:17;12.98;;;7.25;;
70153;SDS011;57519;51.494;-2.626;2023-02-28T11:16:50;16.53;;;7.03;;
70153;SDS011;57519;51.494;-2.626;2023-02-28T11:19:22;14.07;;;7.28;;
70153;SDS011;57519;51.494;-2.626;2023-02-28T11:21:59;16.45;;;7.90;;
70153;SDS011;57519;51.494;-2.626;2023-02-28T11:24:28;13.52;;;7.47;;
70153;SDS011;57519;51.494;-2.626;2023-02-28T11:26:57;14.25;;;8.20;;
70153;SDS011;57519;51.494;-2.626;2023-02-28T11:29:26;16.20;;;8.00;;
70153;SDS011;57519;51.494;-2.626;2023-02-28T11:34:59;15.65;;;8.48;;
70153;SDS011;57519;51.494;-2.626;2023-02-28T11:37:25;14.00;;;6.87;;
70153;SDS011;57519;51.494;-2.626;2023-02-28T11:39:52;15.43;;;8.35;;
70153;SDS011;57519;51.494;-2.626;2023-02-28T11:56:47;15.88;;;6.50;;
70153;SDS011;57519;51.494;-2.626;2023-02-28T12:06:45;11.20;;;6.15;;
70153;SDS011;57519;51.494;-2.626;2023-02-28T12:26:39;11.48;;;6.90;;
70153;SDS011;57519;51.494;-2.626;2023-02-28T12:29:21;9.98;;;6.82;;
70153;SDS011;57519;51.494;-2.626;2023-02-28T12:32:05;10.77;;;5.72;;
70153;SDS011;57519;51.494;-2.626;2023-02-28T12:34:39;10.35;;;6.60;;
70153;SDS011;57519;51.494;-2.626;2023-02-28T12:37:12;8.80;;;5.53;;
70153;SDS011;57519;51.494;-2.626;2023-02-28T12:39:46;7.40;;;5.45;;
70153;SDS011;57519;51.494;-2.626;2023-02-28T12:42:22;7.70;;;6.00;;
70153;SDS011;57519;51.494;-2.626;2023-02-28T12:44:54;9.43;;;5.78;;
70153;SDS011;57519;51.494;-2.626;2023-02-28T12:47:24;8.40;;;5.97;;
70153;SDS011;57519;51.494;-2.626;2023-02-28T12:50:00;8.07;;;5.43;;
70153;SDS011;57519;51.494;-2.626;2023-02-28T12:52:32;8.27;;;5.53;;
70153;SDS011;57519;51.494;-2.626;2023-02-28T12:55:23;7.80;;;5.57;;
70153;SDS011;57519;51.494;-2.626;2023-02-28T13:00:36;8.13;;;5.95;;
70153;SDS011;57519;51.494;-2.626;2023-02-28T13:03:19;7.75;;;5.63;;
70153;SDS011;57519;51.494;-2.626;2023-02-28T13:11:22;8.75;;;5.68;;
70153;SDS011;57519;51.494;-2.626;2023-02-28T13:13:56;9.07;;;6.35;;
70153;SDS011;57519;51.494;-2.626;2023-02-28T13:16:23;8.27;;;6.07;;
70153;SDS011;57519;51.494;-2.626;2023-02-28T13:18:48;10.63;;;6.80;;
70153;SDS011;57519;51.494;-2.626;2023-02-28T13:21:24;10.93;;;6.87;;
70153;SDS011;57519;51.494;-2.626;2023-02-28T13:29:01;10.43;;;6.70;;
70153;SDS011;57519;51.494;-2.626;2023-02-28T13:34:33;8.33;;;6.40;;
70153;SDS011;57519;51.494;-2.626;2023-02-28T13:42:31;9.40;;;6.80;;
70153;SDS011;57519;51.494;-2.626;2023-02-28T13:47:36;8.90;;;6.50;;
70153;SDS011;57519;51.494;-2.626;2023-02-28T13:58:14;7.45;;;5.68;;
70153;SDS011;57519;51.494;-2.626;2023-02-28T14:06:33;6.50;;;5.32;;
70153;SDS011;57519;51.494;-2.626;2023-02-28T14:13:54;6.87;;;5.90;;
70153;SDS011;57519;51.494;-2.626;2023-02-28T14:16:20;9.53;;;5.63;;
70153;SDS011;57519;51.494;-2.626;2023-02-28T14:19:01;8.30;;;5.68;;
70153;SDS011;57519;51.494;-2.626;2023-02-28T14:21:36;7.45;;;5.80;;
70153;SDS011;57519;51.494;-2.626;2023-02-28T14:37:53;8.38;;;5.43;;
70153;SDS011;57519;51.494;-2.626;2023-02-28T14:40:30;7.00;;;6.30;;
70153;SDS011;57519;51.494;-2.626;2023-02-28T14:42:59;8.67;;;5.40;;
70153;SDS011;57519;51.494;-2.626;2023-02-28T14:45:30;6.10;;;5.10;;
70153;SDS011;57519;51.494;-2.626;2023-02-28T14:47:58;6.03;;;4.57;;
70153;SDS011;57519;51.494;-2.626;2023-02-28T14:50:35;7.05;;;5.82;;
70153;SDS011;57519;51.494;-2.626;2023-02-28T14:53:02;7.97;;;5.78;;
70153;SDS011;57519;51.494;-2.626;2023-02-28T14:55:32;7.37;;;5.50;;
70153;SDS011;57519;51.494;-2.626;2023-02-28T14:58:00;5.95;;;5.32;;
70153;SDS011;57519;51.494;-2.626;2023-02-28T15:00:30;6.93;;;5.53;;
70153;SDS011;57519;51.494;-2.626;2023-02-28T15:02:57;8.45;;;5.45;;
70153;SDS011;57519;51.494;-2.626;2023-02-28T15:05:31;6.97;;;5.88;;
70153;SDS011;57519;51.494;-2.626;2023-02-28T15:08:03;6.17;;;5.50;;
70153;SDS011;57519;51.494;-2.626;2023-02-28T15:10:41;6.65;;;5.45;;
70153;SDS011;57519;51.494;-2.626;2023-02-28T15:13:19;7.03;;;5.90;;
70153;SDS011;57519;51.494;-2.626;2023-02-28T15:15:53;8.07;;;5.63;;
70153;SDS011;57519;51.494;-2.626;2023-02-28T15:18:29;5.93;;;5.32;;
70153;SDS011;57519;51.494;-2.626;2023-02-28T15:21:08;8.63;;;5.57;;
70153;SDS011;57519;51.494;-2.626;2023-02-28T15:23:37;6.50;;;5.68;;
70153;SDS011;57519;51.494;-2.626;2023-02-28T15:26:05;7.90;;;5.60;;
70153;SDS011;57519;51.494;-2.626;2023-02-28T15:28:31;7.80;;;6.37;;
70153;SDS011;57519;51.494;-2.626;2023-02-28T15:31:00;6.30;;;5.70;;
70153;SDS011;57519;51.494;-2.626;2023-02-28T15:33:29;7.53;;;5.57;;
70153;SDS011;57519;51.494;-2.626;2023-02-28T15:38:52;8.77;;;6.27;;
70153;SDS011;57519;51.494;-2.626;2023-02-28T15:41:26;7.05;;;5.68;;
70153;SDS011;57519;51.494;-2.626;2023-02-28T15:44:15;9.05;;;6.63;;
70153;SDS011;57519;51.494;-2.626;2023-02-28T15:46:53;7.15;;;6.30;;
70153;SDS011;57519;51.494;-2.626;2023-02-28T15:49:24;9.80;;;7.15;;
70153;SDS011;57519;51.494;-2.626;2023-02-28T15:51:51;7.80;;;6.20;;
70153;SDS011;57519;51.494;-2.626;2023-02-28T15:54:22;7.40;;;5.95;;
70153;SDS011;57519;51.494;-2.626;2023-02-28T15:56:50;7.53;;;6.22;;
70153;SDS011;57519;51.494;-2.626;2023-02-28T15:59:18;8.10;;;5.75;;
70153;SDS011;57519;51.494;-2.626;2023-02-28T16:07:33;6.55;;;5.45;;
70153;SDS011;57519;51.494;-2.626;2023-02-28T16:10:03;6.07;;;4.82;;
70153;SDS011;57519;51.494;-2.626;2023-02-28T16:12:30;6.07;;;5.43;;
70153;SDS011;57519;51.494;-2.626;2023-02-28T16:14:59;7.25;;;5.68;;
70153;SDS011;57519;51.494;-2.626;2023-02-28T16:17:28;8.63;;;5.93;;
70153;SDS011;57519;51.494;-2.626;2023-02-28T16:19:57;7.97;;;5.70;;
70153;SDS011;57519;51.494;-2.626;2023-02-28T16:22:23;6.95;;;5.60;;
70153;SDS011;57519;51.494;-2.626;2023-02-28T16:24:49;6.40;;;4.93;;
70153;SDS011;57519;51.494;-2.626;2023-02-28T16:27:20;7.15;;;5.32;;
70153;SDS011;57519;51.494;-2.626;2023-02-28T16:29:49;7.18;;;5.53;;
70153;SDS011;57519;51.494;-2.626;2023-02-28T16:32:17;6.53;;;5.82;;
70153;SDS011;57519;51.494;-2.626;2023-02-28T16:34:43;7.50;;;6.17;;
70153;SDS011;57519;51.494;-2.626;2023-02-28T16:37:10;8.02;;;5.85;;
70153;SDS011;57519;51.494;-2.626;2023-02-28T16:39:37;7.00;;;5.53;;
70153;SDS011;57519;51.494;-2.626;2023-02-28T16:42:02;8.00;;;5.67;;
70153;SDS011;57519;51.494;-2.626;2023-02-28T16:44:33;9.15;;;6.28;;
70153;SDS011;57519;51.494;-2.626;2023-02-28T16:47:00;6.03;;;5.20;;
70153;SDS011;57519;51.494;-2.626;2023-02-28T16:49:27;8.32;;;6.18;;
70153;SDS011;57519;51.494;-2.626;2023-02-28T16:51:52;7.93;;;5.65;;
70153;SDS011;57519;51.494;-2.626;2023-02-28T16:54:18;6.63;;;4.90;;
70153;SDS011;57519;51.494;-2.626;2023-02-28T16:56:44;10.07;;;6.10;;
70153;SDS011;57519;51.494;-2.626;2023-02-28T16:59:11;7.05;;;5.50;;
70153;SDS011;57519;51.494;-2.626;2023-02-28T17:01:38;7.15;;;5.65;;
70153;SDS011;57519;51.494;-2.626;2023-02-28T17:04:04;8.33;;;5.87;;
70153;SDS011;57519;51.494;-2.626;2023-02-28T17:06:30;6.65;;;5.05;;
70153;SDS011;57519;51.494;-2.626;2023-02-28T17:08:56;8.35;;;5.80;;
70153;SDS011;57519;51.494;-2.626;2023-02-28T17:11:24;8.90;;;5.90;;
70153;SDS011;57519;51.494;-2.626;2023-02-28T17:13:50;8.23;;;5.97;;